createdAt,value
2022-08-26T00:01:10.487Z,99873.72
2022-08-26T00:03:37.121Z,99873.09
2022-08-26T00:06:03.756Z,99864.19
2022-08-26T00:08:30.196Z,99867.16
2022-08-26T00:10:56.824Z,99862.50
2022-08-26T00:13:26.330Z,99859.28
2022-08-26T00:15:52.912Z,99863.97
2022-08-26T00:18:22.286Z,99861.13
2022-08-26T00:20:49.251Z,99862.81
2022-08-26T00:23:15.791Z,99871.66
2022-08-26T00:25:42.730Z,99869.53
2022-08-26T00:28:09.612Z,99872.25
2022-08-26T00:30:38.021Z,99873.06
2022-08-26T00:33:06.129Z,99879.91
2022-08-26T00:35:34.769Z,99881.31
2022-08-26T00:38:02.920Z,99880.94
2022-08-26T00:40:34.716Z,99884.13
2022-08-26T00:43:02.588Z,99870.41
2022-08-26T00:45:42.096Z,99872.28
2022-08-26T00:48:10.115Z,99883.38
2022-08-26T00:50:41.811Z,99881.66
2022-08-26T00:53:21.540Z,99885.72
2022-08-26T00:55:57.896Z,99877.38
2022-08-26T00:58:26.904Z,99880.00
2022-08-26T01:00:54.078Z,99874.44
2022-08-26T01:03:25.516Z,99872.63
2022-08-26T01:05:56.971Z,99868.47
2022-08-26T01:08:24.760Z,99869.28
2022-08-26T01:10:54.922Z,99869.38
2022-08-26T01:13:23.056Z,99875.75
2022-08-26T01:15:55.889Z,99874.63
2022-08-26T01:18:23.260Z,99880.22
2022-08-26T01:21:02.884Z,99878.44
2022-08-26T01:23:33.728Z,99876.22
2022-08-26T01:26:05.132Z,99877.25
2022-08-26T01:28:33.780Z,99880.91
2022-08-26T01:31:03.865Z,99880.34
2022-08-26T01:33:42.569Z,99871.38
2022-08-26T01:36:10.879Z,99877.41
2022-08-26T01:38:37.452Z,99874.66
2022-08-26T01:41:04.992Z,99883.91
2022-08-26T01:43:45.932Z,99882.63
2022-08-26T01:46:14.548Z,99880.38
2022-08-26T01:48:44.040Z,99873.72
2022-08-26T01:51:13.902Z,99871.25
2022-08-26T01:53:42.097Z,99869.63
2022-08-26T01:56:12.959Z,99870.81
2022-08-26T01:58:52.249Z,99877.72
2022-08-26T02:01:19.964Z,99880.91
2022-08-26T02:04:17.632Z,99878.13
2022-08-26T02:06:45.036Z,99888.47
2022-08-26T02:09:12.603Z,99888.41
2022-08-26T02:11:41.514Z,99878.22
2022-08-26T02:14:24.497Z,99885.91
2022-08-26T02:16:55.310Z,99888.28
2022-08-26T02:19:29.365Z,99891.53
2022-08-26T02:21:59.577Z,99891.63
2022-08-26T02:24:29.839Z,99891.66
2022-08-26T02:26:58.080Z,99889.72
2022-08-26T02:29:29.133Z,99885.06
2022-08-26T02:31:57.889Z,99884.75
2022-08-26T02:34:31.326Z,99890.91
2022-08-26T02:37:00.030Z,99893.16
2022-08-26T02:39:27.283Z,99880.97
2022-08-26T02:41:55.064Z,99888.22
2022-08-26T02:44:21.493Z,99889.50
2022-08-26T02:46:48.275Z,99885.94
2022-08-26T02:49:17.138Z,99888.97
2022-08-26T02:51:43.818Z,99892.63
2022-08-26T02:54:10.402Z,99882.25
2022-08-26T02:56:37.421Z,99886.69
2022-08-26T02:59:04.120Z,99883.56
2022-08-26T03:01:34.208Z,99890.78
2022-08-26T03:04:02.588Z,99888.97
2022-08-26T03:06:29.712Z,99893.78
2022-08-26T03:08:56.388Z,99887.88
2022-08-26T03:11:23.763Z,99888.50
2022-08-26T03:13:51.830Z,99879.69
2022-08-26T03:16:18.855Z,99879.03
2022-08-26T03:18:52.106Z,99888.09
2022-08-26T03:21:19.725Z,99892.81
2022-08-26T03:23:46.507Z,99884.09
2022-08-26T03:26:14.835Z,99891.28
2022-08-26T03:29:01.714Z,99889.69
2022-08-26T03:31:29.623Z,99889.47
2022-08-26T03:33:59.577Z,99889.69
2022-08-26T03:36:27.132Z,99886.56
2022-08-26T03:38:53.775Z,99884.19
2022-08-26T03:41:21.260Z,99882.69
2022-08-26T03:43:50.630Z,99882.25
2022-08-26T03:46:18.640Z,99889.59
2022-08-26T03:48:45.718Z,99887.63
2022-08-26T03:51:15.101Z,99884.97
2022-08-26T03:53:45.373Z,99888.53
2022-08-26T03:56:11.769Z,99891.31
2022-08-26T03:58:38.751Z,99896.47
2022-08-26T04:01:09.187Z,99897.53
2022-08-26T04:03:54.247Z,99898.50
2022-08-26T04:06:20.707Z,99899.63
2022-08-26T04:08:48.141Z,99896.25
2022-08-26T04:11:22.779Z,99898.13
2022-08-26T04:13:50.319Z,99893.59
2022-08-26T04:16:17.974Z,99897.00
2022-08-26T04:18:46.893Z,99899.25
2022-08-26T04:21:18.247Z,99897.44
2022-08-26T04:23:47.305Z,99884.84
2022-08-26T04:26:15.094Z,99890.44
2022-08-26T04:28:41.711Z,99885.78
2022-08-26T04:31:12.427Z,99889.94
2022-08-26T04:33:41.770Z,99887.66
2022-08-26T04:36:09.207Z,99882.91
2022-08-26T04:38:36.455Z,99885.03
2022-08-26T04:41:05.561Z,99887.31
2022-08-26T04:43:41.710Z,99889.47
2022-08-26T04:46:09.447Z,99898.72
2022-08-26T04:48:40.806Z,99904.31
2022-08-26T04:51:07.364Z,99903.34
2022-08-26T04:53:34.777Z,99903.88
2022-08-26T04:56:01.702Z,99900.81
2022-08-26T04:58:30.970Z,99905.63
2022-08-26T05:00:58.371Z,99903.91
2022-08-26T05:03:27.038Z,99901.88
2022-08-26T05:05:54.395Z,99911.16
2022-08-26T05:08:22.536Z,99910.94
2022-08-26T05:10:54.145Z,99906.47
2022-08-26T05:13:21.082Z,99917.28
2022-08-26T05:15:48.881Z,99910.28
2022-08-26T05:18:17.759Z,99910.19
2022-08-26T05:20:50.245Z,99916.13
2022-08-26T05:23:17.643Z,99918.50
2022-08-26T05:25:46.973Z,99916.22
2022-08-26T05:28:16.125Z,99928.31
2022-08-26T05:30:44.469Z,99927.44
2022-08-26T05:33:12.079Z,99933.16
2022-08-26T05:35:39.133Z,99929.81
2022-08-26T05:38:12.410Z,99930.94
2022-08-26T05:40:44.350Z,99925.13
2022-08-26T05:43:11.998Z,99922.94
2022-08-26T05:45:45.920Z,99932.63
2022-08-26T05:48:14.328Z,99931.66
2022-08-26T05:50:43.276Z,99939.03
2022-08-26T05:53:11.591Z,99932.28
2022-08-26T05:55:45.627Z,99932.50
2022-08-26T05:58:13.102Z,99940.47
2022-08-26T06:00:40.354Z,99934.72
2022-08-26T06:03:08.626Z,99933.13
2022-08-26T06:05:39.320Z,99934.97
2022-08-26T06:08:13.531Z,99927.69
2022-08-26T06:11:01.421Z,99924.38
2022-08-26T06:13:30.351Z,99928.59
2022-08-26T06:16:00.005Z,99925.38
2022-08-26T06:18:34.661Z,99921.16
2022-08-26T06:21:22.132Z,99924.59
2022-08-26T06:24:09.924Z,99917.50
2022-08-26T06:26:37.107Z,99925.88
2022-08-26T06:29:05.683Z,99926.00
2022-08-26T06:31:33.808Z,99930.94
2022-08-26T06:34:01.257Z,99926.13
2022-08-26T06:36:30.608Z,99930.34
2022-08-26T06:39:00.828Z,99934.75
2022-08-26T06:41:27.438Z,99936.38
2022-08-26T06:43:53.874Z,99936.53
2022-08-26T06:46:21.693Z,99935.13
2022-08-26T06:48:48.723Z,99944.72
2022-08-26T06:51:17.957Z,99935.56
2022-08-26T06:53:46.927Z,99939.25
2022-08-26T06:56:18.822Z,99940.75
2022-08-26T06:58:46.064Z,99940.41
2022-08-26T07:01:24.300Z,99940.44
2022-08-26T07:03:52.307Z,99936.16
2022-08-26T07:06:21.600Z,99932.28
2022-08-26T07:08:53.250Z,99932.03
2022-08-26T07:11:20.872Z,99933.44
2022-08-26T07:13:47.803Z,99938.72
2022-08-26T07:16:17.458Z,99930.72
2022-08-26T07:18:45.758Z,99940.31
2022-08-26T07:21:15.539Z,99943.31
2022-08-26T07:23:42.277Z,99943.75
2022-08-26T07:26:12.057Z,99939.88
2022-08-26T07:28:38.518Z,99940.28
2022-08-26T07:31:07.444Z,99932.41
2022-08-26T07:33:38.585Z,99946.06
2022-08-26T07:36:07.975Z,99945.25
2022-08-26T07:38:35.889Z,99943.09
2022-08-26T07:41:02.779Z,99938.91
2022-08-26T07:43:30.284Z,99945.31
2022-08-26T07:45:57.221Z,99937.31
2022-08-26T07:48:24.100Z,99943.06
2022-08-26T07:50:52.572Z,99945.00
2022-08-26T07:53:21.385Z,99946.72
2022-08-26T07:55:48.515Z,99942.94
2022-08-26T07:58:15.897Z,99945.03
2022-08-26T08:00:42.412Z,99946.63
2022-08-26T08:03:10.413Z,99942.91
2022-08-26T08:05:38.026Z,99943.63
2022-08-26T08:08:26.747Z,99944.63
2022-08-26T08:10:55.546Z,99946.41
2022-08-26T08:13:23.073Z,99947.16
2022-08-26T08:15:50.528Z,99946.03
2022-08-26T08:18:18.085Z,99941.84
2022-08-26T08:20:59.273Z,99944.59
2022-08-26T08:23:32.272Z,99939.44
2022-08-26T08:26:04.207Z,99945.84
2022-08-26T08:28:30.780Z,99940.91
2022-08-26T08:30:57.825Z,99946.69
2022-08-26T08:33:24.458Z,99954.09
2022-08-26T08:35:50.925Z,99947.13
2022-08-26T08:38:17.442Z,99946.38
2022-08-26T08:40:45.494Z,99948.16
2022-08-26T08:43:14.796Z,99938.78
2022-08-26T08:45:50.739Z,99939.03
2022-08-26T08:48:31.447Z,99943.97
2022-08-26T08:51:08.336Z,99943.31
2022-08-26T08:53:42.188Z,99938.97
2022-08-26T08:56:23.734Z,99943.00
2022-08-26T08:59:14.654Z,99941.03
2022-08-26T09:02:13.275Z,99938.53
2022-08-26T09:05:02.143Z,99938.72
2022-08-26T09:07:48.090Z,99945.09
2022-08-26T09:10:50.973Z,99944.47
2022-08-26T09:13:25.287Z,99945.56
2022-08-26T09:15:59.664Z,99942.22
2022-08-26T09:18:47.504Z,99942.00
2022-08-26T09:21:17.928Z,99940.13
2022-08-26T09:23:49.339Z,99938.16
2022-08-26T09:26:39.142Z,99938.31
2022-08-26T09:29:13.648Z,99935.84
2022-08-26T09:31:41.332Z,99932.66
2022-08-26T09:34:17.345Z,99928.59
2022-08-26T09:36:48.531Z,99934.06
2022-08-26T09:39:24.027Z,99929.75
2022-08-26T09:42:08.020Z,99927.25
2022-08-26T09:44:56.799Z,99924.31
2022-08-26T09:47:30.101Z,99921.59
2022-08-26T09:50:09.917Z,99919.38
2022-08-26T09:52:40.494Z,99909.59
2022-08-26T09:55:23.088Z,99909.78
2022-08-26T09:57:52.864Z,99919.88
2022-08-26T10:00:39.504Z,99902.91
2022-08-26T10:03:10.658Z,99907.06
2022-08-26T10:05:41.277Z,99897.63
2022-08-26T10:08:33.251Z,99898.06
2022-08-26T10:11:04.381Z,99888.53
2022-08-26T10:13:31.177Z,99888.84
2022-08-26T10:16:10.761Z,99886.34
2022-08-26T10:18:42.977Z,99888.53
2022-08-26T10:21:18.037Z,99890.22
2022-08-26T10:23:51.697Z,99880.72
2022-08-26T10:26:26.547Z,99876.91
2022-08-26T10:29:08.900Z,99875.06
2022-08-26T10:31:44.412Z,99872.22
2022-08-26T10:34:12.476Z,99868.31
2022-08-26T10:39:46.012Z,99868.31
2022-08-26T10:42:32.248Z,99860.94
2022-08-26T10:45:14.994Z,99869.31
2022-08-26T10:47:54.088Z,99862.13
2022-08-26T10:50:24.755Z,99858.53
2022-08-26T10:53:05.811Z,99855.78
2022-08-26T10:55:49.039Z,99855.06
2022-08-26T10:58:27.666Z,99847.63
2022-08-26T11:01:33.848Z,99852.06
2022-08-26T11:04:16.820Z,99851.63
2022-08-26T11:06:46.007Z,99838.47
2022-08-26T11:09:45.048Z,99840.44
2022-08-26T11:12:42.031Z,99839.72
2022-08-26T11:15:36.855Z,99839.19
2022-08-26T11:18:09.490Z,99831.16
2022-08-26T11:20:41.898Z,99831.03
2022-08-26T11:23:20.608Z,99822.44
2022-08-26T11:25:56.938Z,99825.06
2022-08-26T11:28:34.592Z,99831.59
2022-08-26T11:31:01.668Z,99816.28
2022-08-26T11:33:43.819Z,99818.56
2022-08-26T11:36:25.966Z,99819.31
2022-08-26T11:38:54.664Z,99819.03
2022-08-26T11:41:22.897Z,99819.84
2022-08-26T11:43:52.162Z,99825.88
2022-08-26T11:46:28.246Z,99811.50
2022-08-26T11:49:05.133Z,99808.06
2022-08-26T11:51:35.969Z,99807.91
2022-08-26T11:54:30.547Z,99805.97
2022-08-26T11:57:09.285Z,99801.47
2022-08-26T11:59:39.075Z,99805.25
2022-08-26T12:02:15.272Z,99798.53
2022-08-26T12:04:46.274Z,99789.53
2022-08-26T12:07:13.353Z,99793.88
2022-08-26T12:09:56.427Z,99786.47
2022-08-26T12:12:42.434Z,99781.16
2022-08-26T12:15:22.662Z,99782.09
2022-08-26T12:17:54.653Z,99787.41
2022-08-26T12:20:48.536Z,99778.06
2022-08-26T12:23:24.756Z,99784.34
2022-08-26T12:25:54.060Z,99777.75
2022-08-26T12:28:21.726Z,99772.88
2022-08-26T12:31:04.166Z,99771.03
2022-08-26T12:33:33.927Z,99773.03
2022-08-26T12:36:01.946Z,99777.66
2022-08-26T12:38:29.794Z,99766.53
2022-08-26T12:40:57.070Z,99766.41
2022-08-26T12:43:56.640Z,99763.16
2022-08-26T12:46:28.254Z,99760.09
2022-08-26T12:48:54.974Z,99762.31
2022-08-26T12:51:28.245Z,99765.25
2022-08-26T12:53:55.477Z,99753.69
2022-08-26T12:56:42.990Z,99760.09
2022-08-26T12:59:23.142Z,99755.34
2022-08-26T13:01:50.483Z,99766.81
2022-08-26T13:04:35.788Z,99753.59
2022-08-26T13:07:21.655Z,99757.31
2022-08-26T13:09:50.462Z,99759.38
2022-08-26T13:12:28.770Z,99761.47
2022-08-26T13:14:55.764Z,99763.00
2022-08-26T13:17:22.181Z,99763.06
2022-08-26T13:19:48.608Z,99753.56
2022-08-26T13:22:18.997Z,99753.66
2022-08-26T13:24:45.728Z,99749.50
2022-08-26T13:27:14.856Z,99747.84
2022-08-26T13:29:41.534Z,99739.03
2022-08-26T13:32:09.131Z,99741.88
2022-08-26T13:34:37.428Z,99749.88
2022-08-26T13:37:04.698Z,99736.75
2022-08-26T13:39:31.229Z,99745.19
2022-08-26T13:41:57.724Z,99741.41
2022-08-26T13:44:24.437Z,99743.81
2022-08-26T13:46:51.136Z,99732.69
2022-08-26T13:49:17.647Z,99724.66
2022-08-26T13:51:44.161Z,99724.09
2022-08-26T13:54:10.645Z,99720.19
2022-08-26T13:56:37.390Z,99736.16
2022-08-26T13:59:05.625Z,99735.69
2022-08-26T14:01:34.178Z,99738.84
2022-08-26T14:04:00.677Z,99725.69
2022-08-26T14:06:27.208Z,99731.28
2022-08-26T14:08:53.657Z,99735.63
2022-08-26T14:11:21.291Z,99736.75
2022-08-26T14:13:47.842Z,99740.81
2022-08-26T14:16:24.190Z,99743.03
2022-08-26T14:18:51.119Z,99749.72
2022-08-26T14:21:18.135Z,99749.38
2022-08-26T14:23:44.746Z,99747.56
2022-08-26T14:26:14.287Z,99752.06
2022-08-26T14:28:55.952Z,99762.44
2022-08-26T14:31:23.757Z,99760.25
2022-08-26T14:33:50.578Z,99762.19
2022-08-26T14:36:29.078Z,99747.63
2022-08-26T14:38:58.133Z,99757.56
2022-08-26T14:41:25.360Z,99757.53
2022-08-26T14:44:00.178Z,99763.22
2022-08-26T14:46:30.245Z,99767.13
2022-08-26T14:49:01.047Z,99770.59
2022-08-26T14:51:30.239Z,99778.13
2022-08-26T14:54:11.752Z,99778.97
2022-08-26T14:56:48.875Z,99775.84
2022-08-26T14:59:18.613Z,99767.88
2022-08-26T15:01:45.508Z,99772.78
2022-08-26T15:04:12.340Z,99780.28
2022-08-26T15:06:39.418Z,99776.47
2022-08-26T15:09:06.055Z,99779.53
2022-08-26T15:11:32.932Z,99770.31
2022-08-26T15:13:59.884Z,99770.66
2022-08-26T15:16:28.886Z,99775.94
2022-08-26T15:18:55.889Z,99783.28
2022-08-26T15:21:23.208Z,99786.53
2022-08-26T15:23:50.395Z,99795.34
2022-08-26T15:26:18.139Z,99814.66
2022-08-26T15:28:45.148Z,99810.91
2022-08-26T15:31:12.046Z,99821.34
2022-08-26T15:33:39.174Z,99823.22
2022-08-26T15:36:07.768Z,99828.06
2022-08-26T15:38:37.357Z,99831.25
2022-08-26T15:41:05.691Z,99821.41
2022-08-26T15:43:32.536Z,99835.72
2022-08-26T15:45:59.257Z,99830.69
2022-08-26T15:48:25.753Z,99831.34
2022-08-26T15:51:00.196Z,99833.94
2022-08-26T15:53:29.486Z,99840.72
2022-08-26T15:55:56.734Z,99838.28
2022-08-26T15:58:24.964Z,99842.41
2022-08-26T16:00:54.325Z,99840.09
2022-08-26T16:03:20.847Z,99838.59
2022-08-26T16:05:48.076Z,99822.94
2022-08-26T16:08:15.393Z,99827.44
2022-08-26T16:10:49.951Z,99835.63
2022-08-26T16:13:18.709Z,99837.78
2022-08-26T16:15:46.095Z,99844.59
2022-08-26T16:18:13.851Z,99848.47
2022-08-26T16:20:51.473Z,99848.34
2022-08-26T16:23:35.932Z,99838.13
2022-08-26T16:26:10.838Z,99847.19
2022-08-26T16:28:38.368Z,99850.19
2022-08-26T16:31:06.175Z,99865.78
2022-08-26T16:33:32.736Z,99862.97
2022-08-26T16:35:59.132Z,99875.03
2022-08-26T16:38:25.616Z,99872.31
2022-08-26T16:40:52.035Z,99870.78
2022-08-26T16:43:18.454Z,99875.44
2022-08-26T16:45:44.925Z,99876.63
2022-08-26T16:48:11.455Z,99877.31
2022-08-26T16:50:40.552Z,99885.50
2022-08-26T16:53:07.349Z,99874.06
2022-08-26T16:55:35.262Z,99867.81
2022-08-26T16:58:02.180Z,99866.91
2022-08-26T17:00:31.166Z,99861.97
2022-08-26T17:02:59.753Z,99859.63
2022-08-26T17:05:27.637Z,99860.50
2022-08-26T17:07:59.437Z,99858.47
2022-08-26T17:10:27.735Z,99845.34
2022-08-26T17:12:54.832Z,99842.56
2022-08-26T17:15:23.666Z,99844.03
2022-08-26T17:17:54.213Z,99837.03
2022-08-26T17:20:22.625Z,99835.50
2022-08-26T17:22:51.536Z,99840.53
2022-08-26T17:25:21.889Z,99841.19
2022-08-26T17:27:48.726Z,99842.63
2022-08-26T17:30:16.448Z,99836.22
2022-08-26T17:32:43.426Z,99856.50
2022-08-26T17:35:13.034Z,99859.63
2022-08-26T17:37:40.267Z,99860.38
2022-08-26T17:40:09.853Z,99858.47
2022-08-26T17:42:40.708Z,99864.97
2022-08-26T17:45:08.437Z,99871.91
2022-08-26T17:47:34.948Z,99871.53
2022-08-26T17:50:02.257Z,99872.28
2022-08-26T17:52:29.281Z,99864.59
2022-08-26T17:54:56.828Z,99872.16
2022-08-26T17:57:24.774Z,99866.94
2022-08-26T17:59:52.776Z,99867.25
2022-08-26T18:02:20.919Z,99863.88
2022-08-26T18:04:47.438Z,99862.16
2022-08-26T18:07:14.468Z,99859.00
2022-08-26T18:09:40.900Z,99872.91
2022-08-26T18:12:07.863Z,99872.59
2022-08-26T18:14:34.355Z,99877.47
2022-08-26T18:17:01.430Z,99870.44
2022-08-26T18:19:29.352Z,99867.03
2022-08-26T18:21:55.918Z,99867.06
2022-08-26T18:24:22.449Z,99871.91
2022-08-26T18:26:50.791Z,99877.94
2022-08-26T18:29:19.294Z,99867.75
2022-08-26T18:31:45.801Z,99867.44
2022-08-26T18:34:12.844Z,99869.88
2022-08-26T18:36:42.579Z,99873.31
2022-08-26T18:39:10.562Z,99880.34
2022-08-26T18:41:45.812Z,99883.78
2022-08-26T18:44:14.204Z,99883.78
2022-08-26T18:46:41.136Z,99891.66
2022-08-26T18:49:08.282Z,99895.66
2022-08-26T18:51:35.306Z,99907.84
2022-08-26T18:54:05.348Z,99913.03
2022-08-26T18:56:35.513Z,99924.06
2022-08-26T18:59:03.308Z,99927.16
2022-08-26T19:01:30.991Z,99934.16
2022-08-26T19:03:59.524Z,99935.03
2022-08-26T19:06:28.143Z,99944.59
2022-08-26T19:08:54.981Z,99936.91
2022-08-26T19:11:31.213Z,99941.75
2022-08-26T19:13:58.595Z,99938.72
2022-08-26T19:16:26.883Z,99945.03
2022-08-26T19:18:54.440Z,99946.72
2022-08-26T19:21:22.460Z,99952.31
2022-08-26T19:23:49.847Z,99957.34
2022-08-26T19:26:16.784Z,99963.78
2022-08-26T19:28:43.358Z,99968.63
2022-08-26T19:31:11.693Z,99966.91
2022-08-26T19:33:43.001Z,99969.63
2022-08-26T19:36:15.014Z,99968.81
2022-08-26T19:38:42.716Z,99975.78
2022-08-26T19:41:18.164Z,99970.63
2022-08-26T19:43:46.271Z,99971.59
2022-08-26T19:46:19.907Z,99967.19
2022-08-26T19:48:47.369Z,99971.34
2022-08-26T19:51:20.158Z,99962.91
2022-08-26T19:53:48.204Z,99963.34
2022-08-26T19:56:15.247Z,99972.72
2022-08-26T19:58:42.150Z,99963.63
2022-08-26T20:01:08.888Z,99957.84
2022-08-26T20:03:36.054Z,99952.94
2022-08-26T20:06:05.126Z,99965.38
2022-08-26T20:08:32.532Z,99953.47
2022-08-26T20:11:04.804Z,99950.03
2022-08-26T20:13:32.303Z,99954.59
2022-08-26T20:15:58.938Z,99962.28
2022-08-26T20:18:44.060Z,99958.72
2022-08-26T20:21:29.394Z,99968.53
2022-08-26T20:24:01.990Z,99972.16
2022-08-26T20:26:31.027Z,99972.31
2022-08-26T20:28:57.832Z,99973.59
2022-08-26T20:31:25.669Z,99969.03
2022-08-26T20:33:52.740Z,99969.53
2022-08-26T20:36:22.515Z,99973.06
2022-08-26T20:38:50.224Z,99981.47
2022-08-26T20:41:16.950Z,99982.94
2022-08-26T20:43:44.385Z,99980.06
2022-08-26T20:46:18.155Z,99993.31
2022-08-26T20:48:47.899Z,99983.84
2022-08-26T20:51:15.041Z,99978.47
2022-08-26T20:53:41.583Z,99982.84
2022-08-26T20:56:10.159Z,99985.34
2022-08-26T20:58:37.557Z,99981.63
2022-08-26T21:01:07.984Z,99982.94
2022-08-26T21:03:36.136Z,99973.84
2022-08-26T21:06:03.726Z,99980.41
2022-08-26T21:08:33.156Z,99970.09
2022-08-26T21:11:00.952Z,99975.47
2022-08-26T21:13:35.755Z,99965.69
2022-08-26T21:16:10.410Z,99974.97
2022-08-26T21:18:36.922Z,99976.19
2022-08-26T21:21:08.189Z,99984.22
2022-08-26T21:23:36.057Z,99982.09
2022-08-26T21:26:04.952Z,99974.72
2022-08-26T21:28:31.699Z,99977.63
2022-08-26T21:30:58.169Z,99979.13
2022-08-26T21:33:24.597Z,99984.00
2022-08-26T21:35:55.855Z,99996.34
2022-08-26T21:38:22.599Z,99999.91
2022-08-26T21:41:02.337Z,100007.00
2022-08-26T21:43:35.348Z,100005.56
2022-08-26T21:46:11.370Z,100005.78
2022-08-26T21:48:39.487Z,99998.88
2022-08-26T21:51:06.306Z,100002.22
2022-08-26T21:53:32.709Z,100003.38
2022-08-26T21:55:59.151Z,100002.41
2022-08-26T21:58:25.568Z,100005.72
2022-08-26T22:00:52.260Z,100006.59
2022-08-26T22:03:18.679Z,100009.22
2022-08-26T22:05:50.395Z,100012.13
2022-08-26T22:08:23.406Z,100012.38
2022-08-26T22:10:54.985Z,100023.69
2022-08-26T22:13:25.761Z,100015.78
2022-08-26T22:15:52.186Z,100017.63
2022-08-26T22:18:21.123Z,100024.19
2022-08-26T22:20:47.909Z,100022.84
2022-08-26T22:23:14.342Z,100027.94
2022-08-26T22:25:44.271Z,100024.69
2022-08-26T22:28:10.863Z,100028.75
2022-08-26T22:30:38.004Z,100030.59
2022-08-26T22:33:05.533Z,100025.94
2022-08-26T22:35:32.043Z,100026.34
2022-08-26T22:37:59.222Z,100025.19
2022-08-26T22:40:25.747Z,100026.06
2022-08-26T22:42:55.704Z,100027.78
2022-08-26T22:45:27.370Z,100017.53
2022-08-26T22:47:53.858Z,100024.63
2022-08-26T22:50:20.292Z,100020.06
2022-08-26T22:52:46.802Z,100018.22
2022-08-26T22:55:13.258Z,100018.59
2022-08-26T22:57:39.790Z,100031.34
2022-08-26T23:00:06.968Z,100024.88
2022-08-26T23:02:38.339Z,100021.59
2022-08-26T23:05:06.193Z,100023.34
2022-08-26T23:07:33.251Z,100016.19
2022-08-26T23:09:59.835Z,100020.78
2022-08-26T23:12:27.511Z,100015.75
2022-08-26T23:14:53.916Z,100013.31
2022-08-26T23:17:21.318Z,100015.88
2022-08-26T23:19:47.726Z,100021.63
2022-08-26T23:22:14.317Z,100024.47
2022-08-26T23:24:40.745Z,100017.53
2022-08-26T23:27:07.252Z,100020.13
2022-08-26T23:29:35.586Z,100018.91
2022-08-26T23:32:04.153Z,100019.03
2022-08-26T23:34:49.107Z,100019.56
2022-08-26T23:37:15.600Z,100015.94
2022-08-26T23:39:42.086Z,100023.44
2022-08-26T23:42:08.547Z,100019.91
2022-08-26T23:44:35.005Z,100018.78
2022-08-26T23:47:01.653Z,100018.16
2022-08-26T23:49:28.757Z,100014.78
2022-08-26T23:52:13.944Z,100016.63
2022-08-26T23:54:40.538Z,100023.53
2022-08-26T23:57:07.609Z,100011.44
2022-08-26T23:59:34.208Z,100017.59
